Time;durP1;ratioP1;P1;durP2;ratioP2;P2;SDS_P1;SDS_P2;PMS_P1;PMS_P2;Temp;Humidity;BMP_temperature;BMP_pressure;BME280_temperature;BME280_humidity;BME280_pressure;Samples;Min_cycle;Max_cycle;Signal;HPM_P1;HPM_P2
2023/05/01 00:01:42;;;;;;;43.63;19.00;;;;;;;;;;4962481;28;20213;-83
2023/05/01 00:04:08;;;;;;;41.13;20.17;;;;;;;;;;4942423;28;20382;-82
2023/05/01 00:06:38;;;;;;;43.92;20.95;;;;;;;;;;4943257;28;20054;-81
2023/05/01 00:09:05;;;;;;;47.25;20.95;;;;;;;;;;4945465;28;20520;-82
2023/05/01 00:11:33;;;;;;;48.35;21.48;;;;;;;;;;4960531;28;20071;-80
2023/05/01 00:14:00;;;;;;;46.42;22.08;;;;;;;;;;4944593;28;20054;-83
2023/05/01 00:16:26;;;;;;;50.53;21.95;;;;;;;;;;4943560;28;20052;-83
2023/05/01 00:18:54;;;;;;;49.17;22.48;;;;;;;;;;4945545;28;20067;-83
2023/05/01 00:21:20;;;;;;;51.53;23.67;;;;;;;;;;4945071;28;20043;-81
2023/05/01 00:23:47;;;;;;;48.20;21.50;;;;;;;;;;4954366;28;20083;-83
2023/05/01 00:26:13;;;;;;;51.80;23.02;;;;;;;;;;4970499;28;20106;-82
2023/05/01 00:28:43;;;;;;;48.50;21.45;;;;;;;;;;4971132;28;20058;-83
2023/05/01 00:31:10;;;;;;;50.88;21.70;;;;;;;;;;4971544;28;20051;-83
2023/05/01 00:33:36;;;;;;;48.63;23.02;;;;;;;;;;4954895;28;20122;-82
2023/05/01 00:36:03;;;;;;;51.08;21.75;;;;;;;;;;4953750;28;20059;-82
2023/05/01 00:38:30;;;;;;;50.90;22.13;;;;;;;;;;4969189;28;20051;-82
2023/05/01 00:40:56;;;;;;;46.83;21.75;;;;;;;;;;4968369;28;20063;-83
2023/05/01 00:43:23;;;;;;;45.25;20.73;;;;;;;;;;4953363;28;20123;-82
2023/05/01 00:45:49;;;;;;;46.72;20.38;;;;;;;;;;4960926;28;20070;-79
2023/05/01 00:48:16;;;;;;;44.67;20.20;;;;;;;;;;4987770;28;20042;-81
2023/05/01 00:50:44;;;;;;;40.58;19.70;;;;;;;;;;4967014;28;20039;-82
2023/05/01 00:53:11;;;;;;;41.47;18.35;;;;;;;;;;4965447;28;20106;-81
2023/05/01 00:55:40;;;;;;;42.28;19.67;;;;;;;;;;4957653;28;20043;-82
2023/05/01 00:58:07;;;;;;;39.95;18.95;;;;;;;;;;4956185;28;20050;-80
2023/05/01 01:00:34;;;;;;;39.78;19.00;;;;;;;;;;4969114;28;20044;-81
2023/05/01 01:03:01;;;;;;;41.63;20.40;;;;;;;;;;4934823;28;20082;-81
2023/05/01 01:05:29;;;;;;;47.33;21.65;;;;;;;;;;4953005;28;20050;-82
2023/05/01 01:07:58;;;;;;;41.97;20.70;;;;;;;;;;4952961;28;20055;-82
2023/05/01 01:10:30;;;;;;;44.28;19.65;;;;;;;;;;4954291;28;20469;-83
2023/05/01 01:13:01;;;;;;;46.47;20.70;;;;;;;;;;4953852;28;20060;-81
2023/05/01 01:15:43;;;;;;;51.65;21.40;;;;;;;;;;4964396;28;20064;-80
2023/05/01 01:18:22;;;;;;;52.88;22.60;;;;;;;;;;4970265;28;20063;-81
2023/05/01 01:20:54;;;;;;;47.92;22.02;;;;;;;;;;4957312;28;20127;-83
2023/05/01 01:23:32;;;;;;;53.95;24.13;;;;;;;;;;4937107;29;20047;-83
2023/05/01 01:26:02;;;;;;;50.25;23.73;;;;;;;;;;4954393;28;20078;-81
2023/05/01 01:28:35;;;;;;;57.60;24.73;;;;;;;;;;4951844;28;20055;-82
2023/05/01 01:31:11;;;;;;;51.78;22.27;;;;;;;;;;4937254;29;20043;-84
2023/05/01 01:33:56;;;;;;;50.38;23.17;;;;;;;;;;4956911;28;20030;-80
2023/05/01 01:36:45;;;;;;;44.83;22.65;;;;;;;;;;4965661;28;20068;-82
2023/05/01 01:39:19;;;;;;;49.83;22.50;;;;;;;;;;4933997;28;20048;-81
2023/05/01 01:41:48;;;;;;;59.28;23.13;;;;;;;;;;4946986;28;20146;-82
2023/05/01 01:44:19;;;;;;;52.15;21.52;;;;;;;;;;4957239;28;20047;-82
2023/05/01 01:46:47;;;;;;;49.72;23.17;;;;;;;;;;4955915;28;20043;-81
2023/05/01 01:49:25;;;;;;;49.20;22.38;;;;;;;;;;4956569;28;20094;-81
2023/05/01 01:51:54;;;;;;;49.50;23.85;;;;;;;;;;4937239;29;20043;-80
2023/05/01 01:54:25;;;;;;;48.08;22.00;;;;;;;;;;4938064;29;20047;-81
2023/05/01 01:56:52;;;;;;;52.35;22.50;;;;;;;;;;4953618;28;20078;-83
2023/05/01 01:59:20;;;;;;;51.38;23.08;;;;;;;;;;4951533;28;20118;-84
2023/05/01 02:01:48;;;;;;;52.80;24.58;;;;;;;;;;4951550;28;20055;-82
2023/05/01 02:04:15;;;;;;;53.53;23.80;;;;;;;;;;4968352;28;20039;-81
2023/05/01 02:06:43;;;;;;;56.42;24.40;;;;;;;;;;4955216;28;20046;-82
2023/05/01 02:09:11;;;;;;;60.08;24.75;;;;;;;;;;4968408;28;20081;-83
2023/05/01 02:11:38;;;;;;;52.08;23.48;;;;;;;;;;4953705;28;20085;-82
2023/05/01 02:14:05;;;;;;;54.08;24.13;;;;;;;;;;4954284;28;20077;-82
2023/05/01 02:16:33;;;;;;;60.45;24.80;;;;;;;;;;4954684;28;20102;-82
2023/05/01 02:19:02;;;;;;;58.58;24.55;;;;;;;;;;4955004;28;20051;-81
2023/05/01 02:21:30;;;;;;;60.63;24.33;;;;;;;;;;4954947;28;20053;-82
2023/05/01 02:23:59;;;;;;;58.25;24.50;;;;;;;;;;4934903;29;20051;-82
2023/05/01 02:26:28;;;;;;;55.80;24.05;;;;;;;;;;4958850;28;20214;-83
2023/05/01 02:28:55;;;;;;;51.35;22.63;;;;;;;;;;4926612;29;20051;-82
2023/05/01 02:31:22;;;;;;;52.33;23.83;;;;;;;;;;4956980;29;20052;-82
2023/05/01 02:33:48;;;;;;;54.22;23.27;;;;;;;;;;4940613;29;20047;-81
2023/05/01 02:36:15;;;;;;;55.38;23.65;;;;;;;;;;4956125;29;20122;-83
2023/05/01 02:38:43;;;;;;;54.10;24.02;;;;;;;;;;4939615;29;20048;-83
2023/05/01 02:41:10;;;;;;;55.83;23.77;;;;;;;;;;4954339;28;20142;-83
2023/05/01 02:43:37;;;;;;;53.33;23.15;;;;;;;;;;4954115;29;20079;-83
2023/05/01 02:46:04;;;;;;;63.10;24.42;;;;;;;;;;4954645;29;20073;-83
2023/05/01 02:48:32;;;;;;;52.17;24.52;;;;;;;;;;4949524;29;20091;-82
2023/05/01 02:51:00;;;;;;;67.03;25.52;;;;;;;;;;4933454;29;20082;-83
2023/05/01 02:53:26;;;;;;;71.70;27.40;;;;;;;;;;4949453;28;20465;-80
2023/05/01 02:56:01;;;;;;;67.97;27.77;;;;;;;;;;4945846;29;20056;-83
2023/05/01 02:58:29;;;;;;;68.28;26.20;;;;;;;;;;4947878;29;20051;-82
2023/05/01 03:00:55;;;;;;;67.88;26.02;;;;;;;;;;4932814;28;20623;-82
2023/05/01 03:03:22;;;;;;;62.97;26.05;;;;;;;;;;4949809;28;20444;-82
2023/05/01 03:05:50;;;;;;;63.17;25.17;;;;;;;;;;4934304;29;20051;-82
2023/05/01 03:08:17;;;;;;;53.80;24.15;;;;;;;;;;4949919;29;20609;-82
2023/05/01 03:10:44;;;;;;;66.47;25.98;;;;;;;;;;4950006;28;20043;-80
2023/05/01 03:13:10;;;;;;;64.15;25.42;;;;;;;;;;4934834;29;20073;-81
2023/05/01 03:15:37;;;;;;;71.03;26.42;;;;;;;;;;4952089;29;20050;-82
2023/05/01 03:18:04;;;;;;;60.35;25.15;;;;;;;;;;4940200;29;20058;-83
2023/05/01 03:20:31;;;;;;;60.58;25.20;;;;;;;;;;4941176;29;20143;-82
2023/05/01 03:22:58;;;;;;;58.97;23.88;;;;;;;;;;4965867;28;20138;-80
2023/05/01 03:25:24;;;;;;;63.30;24.48;;;;;;;;;;4959455;28;20066;-81
2023/05/01 03:27:51;;;;;;;58.67;25.02;;;;;;;;;;4961494;28;20105;-84
2023/05/01 03:30:20;;;;;;;78.47;27.85;;;;;;;;;;4962403;28;20050;-82
2023/05/01 03:32:48;;;;;;;74.10;27.15;;;;;;;;;;4958129;29;20056;-82
2023/05/01 03:35:23;;;;;;;;;;;;;;;;;;4935992;29;20186;-82
2023/05/01 03:37:50;;;;;;;65.75;24.63;;;;;;;;;;4947249;29;19929;-81
2023/05/01 03:40:39;;;;;;;65.18;25.40;;;;;;;;;;4935912;29;20044;-82
2023/05/01 03:43:25;;;;;;;68.78;25.20;;;;;;;;;;4938740;29;20198;-82
2023/05/01 03:45:53;;;;;;;67.90;26.17;;;;;;;;;;4959623;28;20107;-84
2023/05/01 03:48:19;;;;;;;69.70;25.67;;;;;;;;;;4937687;28;20048;-81
2023/05/01 03:50:46;;;;;;;61.35;25.23;;;;;;;;;;4944866;28;20535;-84
2023/05/01 03:53:14;;;;;;;65.53;25.17;;;;;;;;;;4951430;28;20124;-82
2023/05/01 03:55:41;;;;;;;72.82;24.63;;;;;;;;;;4953474;28;20102;-84
2023/05/01 03:58:09;;;;;;;71.75;26.27;;;;;;;;;;4955236;28;20039;-82
2023/05/01 04:00:37;;;;;;;66.22;25.15;;;;;;;;;;4946156;28;20077;-81
2023/05/01 04:03:04;;;;;;;70.13;27.00;;;;;;;;;;4945392;29;20524;-81
2023/05/01 04:05:33;;;;;;;59.85;24.25;;;;;;;;;;4946876;28;20043;-80
2023/05/01 04:08:01;;;;;;;67.95;24.25;;;;;;;;;;4946385;29;20507;-81
2023/05/01 04:10:28;;;;;;;69.07;26.02;;;;;;;;;;4957909;28;20047;-85
2023/05/01 04:12:59;;;;;;;65.40;25.75;;;;;;;;;;4945029;28;20039;-83
2023/05/01 04:15:26;;;;;;;68.15;25.10;;;;;;;;;;4944277;28;20115;-85
2023/05/01 04:17:54;;;;;;;54.72;23.42;;;;;;;;;;4944800;28;20451;-82
2023/05/01 04:20:22;;;;;;;58.15;23.27;;;;;;;;;;4956864;28;20050;-84
2023/05/01 04:22:48;;;;;;;61.10;24.40;;;;;;;;;;4957302;28;20062;-82
2023/05/01 04:25:16;;;;;;;57.17;23.83;;;;;;;;;;4952632;28;20047;-85
2023/05/01 04:27:44;;;;;;;54.35;23.90;;;;;;;;;;4944567;29;20072;-83
2023/05/01 04:30:11;;;;;;;57.28;23.70;;;;;;;;;;4971908;28;20066;-83
2023/05/01 04:32:58;;;;;;;51.13;22.88;;;;;;;;;;4978524;28;20588;-83
2023/05/01 04:35:24;;;;;;;59.90;24.27;;;;;;;;;;4971854;28;20057;-81
2023/05/01 04:37:51;;;;;;;52.78;23.67;;;;;;;;;;4970673;28;20043;-83
2023/05/01 04:40:18;;;;;;;51.08;23.00;;;;;;;;;;4965330;28;20103;-82
2023/05/01 04:42:45;;;;;;;55.50;22.88;;;;;;;;;;4963387;28;20047;-82
2023/05/01 04:45:13;;;;;;;50.17;21.65;;;;;;;;;;4948064;28;20043;-81
2023/05/01 04:47:39;;;;;;;53.53;22.48;;;;;;;;;;4964586;28;20039;-83
2023/05/01 04:50:07;;;;;;;49.00;21.23;;;;;;;;;;4951752;28;20067;-84
2023/05/01 04:52:34;;;;;;;52.15;22.10;;;;;;;;;;4946680;28;20063;-82
2023/05/01 04:55:02;;;;;;;47.08;22.27;;;;;;;;;;4968004;28;20082;-82
2023/05/01 04:57:33;;;;;;;53.97;23.48;;;;;;;;;;4969346;28;20047;-81
2023/05/01 05:00:04;;;;;;;51.58;22.13;;;;;;;;;;4970767;28;20040;-81
2023/05/01 05:02:32;;;;;;;43.75;20.10;;;;;;;;;;4971122;28;20112;-83
2023/05/01 05:04:59;;;;;;;49.45;20.15;;;;;;;;;;4973414;28;20574;-82
2023/05/01 05:07:26;;;;;;;44.22;19.40;;;;;;;;;;4961632;28;20779;-82
2023/05/01 05:10:11;;;;;;;46.43;21.70;;;;;;;;;;4967820;28;20129;-81
2023/05/01 05:12:41;;;;;;;43.22;19.77;;;;;;;;;;4964814;28;20302;-80
2023/05/01 05:15:08;;;;;;;43.65;20.05;;;;;;;;;;4954720;28;20051;-82
2023/05/01 05:17:37;;;;;;;45.58;19.30;;;;;;;;;;4955084;28;20075;-82
2023/05/01 05:20:04;;;;;;;45.30;18.95;;;;;;;;;;4967970;28;20050;-84
2023/05/01 05:22:34;;;;;;;41.95;19.42;;;;;;;;;;4949892;28;20048;-84
2023/05/01 05:25:16;;;;;;;45.92;18.95;;;;;;;;;;4956186;28;20201;-81
2023/05/01 05:27:42;;;;;;;41.53;18.65;;;;;;;;;;4952915;29;20114;-83
2023/05/01 05:30:09;;;;;;;42.80;18.65;;;;;;;;;;4951562;28;20059;-83
2023/05/01 05:32:36;;;;;;;42.55;18.83;;;;;;;;;;4971032;28;20058;-83
2023/05/01 05:35:04;;;;;;;45.33;19.90;;;;;;;;;;4957939;28;20094;-81
2023/05/01 05:37:31;;;;;;;55.20;24.13;;;;;;;;;;4953725;28;20039;-82
2023/05/01 05:39:57;;;;;;;48.65;23.17;;;;;;;;;;4960762;28;20110;-82
2023/05/01 05:42:24;;;;;;;47.88;21.50;;;;;;;;;;4940366;28;20052;-81
2023/05/01 05:44:51;;;;;;;47.10;21.95;;;;;;;;;;4951727;28;20054;-84
2023/05/01 05:47:18;;;;;;;47.67;21.58;;;;;;;;;;4953452;28;20103;-83
2023/05/01 05:49:45;;;;;;;44.05;20.60;;;;;;;;;;4939311;29;20044;-83
2023/05/01 05:52:11;;;;;;;43.08;19.40;;;;;;;;;;4948019;28;20040;-83
2023/05/01 05:54:38;;;;;;;48.42;19.52;;;;;;;;;;4937727;29;22726;-84
2023/05/01 05:57:05;;;;;;;43.83;19.23;;;;;;;;;;4949237;28;20054;-83
2023/05/01 05:59:32;;;;;;;42.80;19.23;;;;;;;;;;4932166;29;20048;-82
2023/05/01 06:01:59;;;;;;;47.33;19.30;;;;;;;;;;4933808;29;20566;-83
2023/05/01 06:04:26;;;;;;;41.95;18.83;;;;;;;;;;4934507;29;20424;-82
2023/05/01 06:06:53;;;;;;;47.38;19.40;;;;;;;;;;4949321;28;20606;-82
2023/05/01 06:09:20;;;;;;;39.15;18.55;;;;;;;;;;4951401;28;20083;-82
2023/05/01 06:11:47;;;;;;;43.50;19.48;;;;;;;;;;4955939;28;20050;-83
2023/05/01 06:14:14;;;;;;;44.55;20.17;;;;;;;;;;4976036;28;20063;-82
2023/05/01 06:16:40;;;;;;;45.15;18.85;;;;;;;;;;4939601;28;20095;-82
2023/05/01 06:19:09;;;;;;;41.03;18.25;;;;;;;;;;4967347;28;20055;-84
2023/05/01 06:21:35;;;;;;;39.10;16.98;;;;;;;;;;4958325;28;20078;-81
2023/05/01 06:24:03;;;;;;;41.40;17.90;;;;;;;;;;4963508;28;20055;-83
2023/05/01 06:26:42;;;;;;;37.28;17.30;;;;;;;;;;4931747;28;20153;-82
2023/05/01 06:29:08;;;;;;;39.22;17.38;;;;;;;;;;4947340;28;20072;-80
2023/05/01 06:31:35;;;;;;;54.50;23.58;;;;;;;;;;4933756;28;20347;-77
2023/05/01 06:34:01;;;;;;;73.28;28.80;;;;;;;;;;4953280;28;20047;-82
2023/05/01 06:36:42;;;;;;;85.07;32.90;;;;;;;;;;4940580;29;20047;-80
2023/05/01 06:39:09;;;;;;;60.42;25.30;;;;;;;;;;4955032;28;20536;-81
2023/05/01 06:41:37;;;;;;;42.63;18.30;;;;;;;;;;4940368;28;20066;-84
2023/05/01 06:44:04;;;;;;;39.60;18.15;;;;;;;;;;4910087;29;20082;-81
2023/05/01 06:46:30;;;;;;;38.67;16.63;;;;;;;;;;4929422;28;20154;-82
2023/05/01 06:48:57;;;;;;;31.67;15.65;;;;;;;;;;4934471;28;20765;-82
2023/05/01 06:51:24;;;;;;;38.15;16.15;;;;;;;;;;4912776;29;20115;-84
2023/05/01 06:53:55;;;;;;;31.35;15.18;;;;;;;;;;4942562;28;20043;-81
2023/05/01 06:56:21;;;;;;;33.00;14.88;;;;;;;;;;4954717;28;20130;-84
2023/05/01 06:58:48;;;;;;;35.88;14.60;;;;;;;;;;4949994;28;20054;-86
2023/05/01 07:01:15;;;;;;;31.38;14.23;;;;;;;;;;4945546;28;20054;-81
2023/05/01 07:03:42;;;;;;;30.35;13.13;;;;;;;;;;4955957;28;20063;-83
2023/05/01 07:06:09;;;;;;;26.20;12.27;;;;;;;;;;4950483;28;20179;-83
2023/05/01 07:08:35;;;;;;;31.58;12.52;;;;;;;;;;4950242;28;20059;-82
2023/05/01 07:11:02;;;;;;;28.08;11.25;;;;;;;;;;4953631;28;20047;-80
2023/05/01 07:13:28;;;;;;;26.38;11.48;;;;;;;;;;4941708;28;20070;-82
2023/05/01 07:15:55;;;;;;;22.58;10.73;;;;;;;;;;4938668;29;20043;-84
2023/05/01 07:18:22;;;;;;;25.42;10.82;;;;;;;;;;4956414;28;20047;-80
2023/05/01 07:20:49;;;;;;;26.60;11.63;;;;;;;;;;4949539;28;20052;-84
2023/05/01 07:23:15;;;;;;;25.45;11.27;;;;;;;;;;4966655;28;20047;-81
2023/05/01 07:25:44;;;;;;;25.60;11.32;;;;;;;;;;4954273;28;20043;-83
2023/05/01 07:28:10;;;;;;;24.23;11.70;;;;;;;;;;4956760;28;20124;-81
2023/05/01 07:30:37;;;;;;;24.95;11.13;;;;;;;;;;4922510;28;20051;-81
2023/05/01 07:33:06;;;;;;;26.55;11.63;;;;;;;;;;4937888;28;20131;-82
2023/05/01 07:35:33;;;;;;;25.70;12.15;;;;;;;;;;4966656;28;20051;-81
2023/05/01 07:38:00;;;;;;;27.38;12.40;;;;;;;;;;4950542;28;20077;-84
2023/05/01 07:40:26;;;;;;;26.40;12.82;;;;;;;;;;4947987;28;20047;-82
2023/05/01 07:42:53;;;;;;;28.95;12.93;;;;;;;;;;4949496;28;20066;-85
2023/05/01 07:45:25;;;;;;;30.15;13.40;;;;;;;;;;4951122;28;20055;-83
2023/05/01 07:47:52;;;;;;;31.13;14.45;;;;;;;;;;4949524;28;20085;-82
2023/05/01 07:50:27;;;;;;;41.60;16.17;;;;;;;;;;4940569;28;20059;-85
2023/05/01 07:53:00;;;;;;;26.65;12.95;;;;;;;;;;4936959;28;20062;-79
2023/05/01 07:55:27;;;;;;;30.25;14.00;;;;;;;;;;4946110;28;20051;-82
2023/05/01 07:57:53;;;;;;;30.35;14.48;;;;;;;;;;4953261;28;20129;-82
2023/05/01 08:00:20;;;;;;;25.77;12.27;;;;;;;;;;4963693;28;20090;-83
2023/05/01 08:02:47;;;;;;;21.20;10.73;;;;;;;;;;4940446;28;20055;-85
2023/05/01 08:05:14;;;;;;;21.13;10.68;;;;;;;;;;4946904;28;20137;-83
2023/05/01 08:07:41;;;;;;;27.52;13.50;;;;;;;;;;4950019;28;20065;-82
2023/05/01 08:10:08;;;;;;;28.83;12.23;;;;;;;;;;4977556;28;20062;-78
2023/05/01 08:12:34;;;;;;;24.35;10.73;;;;;;;;;;4944995;28;20111;-85
2023/05/01 08:15:01;;;;;;;56.97;22.63;;;;;;;;;;4959998;28;20054;-83
2023/05/01 08:17:28;;;;;;;31.63;13.30;;;;;;;;;;4949643;28;20075;-84
2023/05/01 08:19:55;;;;;;;25.40;10.65;;;;;;;;;;4923180;28;20055;-82
2023/05/01 08:22:22;;;;;;;21.98;9.45;;;;;;;;;;4948738;28;20048;-81
2023/05/01 08:24:50;;;;;;;19.50;9.05;;;;;;;;;;4946562;28;20047;-81
2023/05/01 08:27:25;;;;;;;19.15;10.63;;;;;;;;;;4951144;28;20051;-83
2023/05/01 08:30:02;;;;;;;13.47;6.17;;;;;;;;;;4941480;28;20043;-83
2023/05/01 08:32:32;;;;;;;17.73;6.03;;;;;;;;;;4957731;28;20134;-85
2023/05/01 08:34:59;;;;;;;12.73;5.75;;;;;;;;;;4955469;28;20452;-82
2023/05/01 08:37:26;;;;;;;15.32;7.45;;;;;;;;;;4953713;28;20078;-83
2023/05/01 08:39:53;;;;;;;12.13;5.32;;;;;;;;;;4957313;28;20078;-82
2023/05/01 08:42:20;;;;;;;13.15;5.38;;;;;;;;;;4952702;28;20071;-84
2023/05/01 08:44:47;;;;;;;9.52;4.82;;;;;;;;;;4936334;28;20091;-81
2023/05/01 08:47:15;;;;;;;16.25;5.65;;;;;;;;;;4958053;28;20050;-83
2023/05/01 08:49:42;;;;;;;11.35;4.97;;;;;;;;;;4955384;28;20051;-82
2023/05/01 08:52:12;;;;;;;16.67;5.63;;;;;;;;;;4971885;28;20043;-81
2023/05/01 08:54:40;;;;;;;9.82;4.90;;;;;;;;;;4954341;28;20111;-84
2023/05/01 08:57:08;;;;;;;11.15;4.60;;;;;;;;;;4939052;29;20051;-83
2023/05/01 08:59:36;;;;;;;12.00;4.72;;;;;;;;;;4930459;28;20047;-83
2023/05/01 09:02:06;;;;;;;26.55;9.88;;;;;;;;;;4943754;29;20058;-87
2023/05/01 09:04:37;;;;;;;11.65;4.35;;;;;;;;;;4944443;28;20058;-86
2023/05/01 09:07:08;;;;;;;10.43;4.05;;;;;;;;;;4952991;28;20055;-87
2023/05/01 09:09:35;;;;;;;12.02;4.47;;;;;;;;;;4940344;28;20083;-84
2023/05/01 09:12:07;;;;;;;7.18;3.92;;;;;;;;;;4943405;28;20146;-83
2023/05/01 09:14:34;;;;;;;18.95;4.68;;;;;;;;;;4971900;28;20048;-87
2023/05/01 09:17:01;;;;;;;7.95;4.00;;;;;;;;;;4945168;28;20627;-88
2023/05/01 09:19:28;;;;;;;8.75;4.57;;;;;;;;;;4960316;28;20241;-85
2023/05/01 09:21:57;;;;;;;11.18;4.57;;;;;;;;;;4933555;28;20054;-86
2023/05/01 09:24:24;;;;;;;11.02;4.30;;;;;;;;;;4946475;28;20476;-87
2023/05/01 09:26:51;;;;;;;8.70;4.32;;;;;;;;;;4949499;28;20317;-87
2023/05/01 09:29:37;;;;;;;14.52;5.50;;;;;;;;;;4947369;28;20073;-85
2023/05/01 09:32:03;;;;;;;;;;;;;;;;;;4946370;28;20067;-86
2023/05/01 09:34:32;;;;;;;15.45;5.40;;;;;;;;;;4976834;28;19930;-87
2023/05/01 09:36:59;;;;;;;9.70;4.63;;;;;;;;;;4944568;28;20539;-86
2023/05/01 09:39:26;;;;;;;10.95;4.32;;;;;;;;;;4943620;28;20043;-85
2023/05/01 09:41:52;;;;;;;8.15;4.20;;;;;;;;;;4957925;28;20039;-86
2023/05/01 09:44:19;;;;;;;9.85;4.22;;;;;;;;;;4977989;28;20062;-86
2023/05/01 09:46:46;;;;;;;10.55;4.53;;;;;;;;;;4940695;28;20134;-85
2023/05/01 09:49:13;;;;;;;9.27;4.03;;;;;;;;;;4942053;28;20497;-88
2023/05/01 09:51:39;;;;;;;7.88;3.97;;;;;;;;;;4964117;28;20535;-85
2023/05/01 09:54:16;;;;;;;8.43;4.30;;;;;;;;;;4958663;28;20047;-85
2023/05/01 09:56:46;;;;;;;9.30;3.70;;;;;;;;;;4960510;28;20594;-85
2023/05/01 09:59:15;;;;;;;9.38;4.22;;;;;;;;;;4937010;28;20048;-86
2023/05/01 10:01:43;;;;;;;9.15;4.15;;;;;;;;;;4938635;28;20078;-86
2023/05/01 10:04:10;;;;;;;7.07;3.78;;;;;;;;;;4952937;28;20340;-88
2023/05/01 10:06:38;;;;;;;9.23;3.67;;;;;;;;;;4948798;28;20569;-87
2023/05/01 10:09:06;;;;;;;9.75;3.80;;;;;;;;;;4940564;28;20055;-86
2023/05/01 10:11:52;;;;;;;9.27;4.22;;;;;;;;;;4950532;28;20042;-86
2023/05/01 10:14:19;;;;;;;13.23;3.83;;;;;;;;;;4944102;28;20546;-87
2023/05/01 10:16:46;;;;;;;7.72;3.97;;;;;;;;;;4940763;28;20051;-85
2023/05/01 10:19:14;;;;;;;7.15;3.45;;;;;;;;;;4957423;28;20051;-88
2023/05/01 10:21:40;;;;;;;8.90;3.92;;;;;;;;;;4938109;29;20052;-86
2023/05/01 10:24:08;;;;;;;8.95;3.88;;;;;;;;;;4947908;28;20181;-86
2023/05/01 10:26:35;;;;;;;9.98;4.22;;;;;;;;;;4944539;28;20036;-86
2023/05/01 10:29:03;;;;;;;6.97;4.00;;;;;;;;;;4952517;28;20174;-86
2023/05/01 10:31:31;;;;;;;9.68;4.13;;;;;;;;;;4952277;28;20305;-86
2023/05/01 10:34:01;;;;;;;6.65;3.50;;;;;;;;;;4956762;28;20078;-86
2023/05/01 10:36:52;;;;;;;9.60;4.20;;;;;;;;;;4956002;28;20058;-87
2023/05/01 10:39:34;;;;;;;13.15;4.05;;;;;;;;;;4956524;28;20055;-87
2023/05/01 10:42:13;;;;;;;8.25;3.72;;;;;;;;;;4954774;28;20102;-86
2023/05/01 10:44:40;;;;;;;6.10;3.55;;;;;;;;;;4964820;28;20119;-85
2023/05/01 10:47:30;;;;;;;9.02;3.85;;;;;;;;;;4951066;28;20044;-85
2023/05/01 10:50:11;;;;;;;6.03;3.30;;;;;;;;;;4940795;28;21078;-81
2023/05/01 10:53:01;;;;;;;6.07;3.42;;;;;;;;;;4944261;28;20123;-84
2023/05/01 10:55:31;;;;;;;8.38;3.22;;;;;;;;;;4942271;28;20040;-84
2023/05/01 10:57:58;;;;;;;5.75;3.10;;;;;;;;;;4944530;28;20058;-83
2023/05/01 11:00:25;;;;;;;8.95;3.53;;;;;;;;;;4960994;28;20059;-82
2023/05/01 11:03:11;;;;;;;11.32;3.85;;;;;;;;;;4943728;28;20047;-85
2023/05/01 11:05:57;;;;;;;7.00;3.40;;;;;;;;;;4942808;28;20051;-84
2023/05/01 11:08:31;;;;;;;6.80;3.35;;;;;;;;;;4958103;28;20259;-83
2023/05/01 11:11:17;;;;;;;5.78;3.38;;;;;;;;;;4943238;28;20141;-84
2023/05/01 11:14:13;;;;;;;6.97;3.38;;;;;;;;;;4942661;28;20233;-82
2023/05/01 11:16:40;;;;;;;9.20;3.50;;;;;;;;;;4954782;28;20075;-82
2023/05/01 11:19:09;;;;;;;8.38;3.78;;;;;;;;;;4975649;28;20066;-81
2023/05/01 11:21:37;;;;;;;8.93;3.50;;;;;;;;;;4958313;28;20039;-81
2023/05/01 11:24:05;;;;;;;5.95;3.65;;;;;;;;;;4959992;28;20055;-84
2023/05/01 11:26:36;;;;;;;6.00;3.78;;;;;;;;;;4953414;28;20043;-83
2023/05/01 11:29:03;;;;;;;6.88;3.00;;;;;;;;;;4952695;28;20060;-82
2023/05/01 11:31:30;;;;;;;6.88;3.53;;;;;;;;;;4942321;28;20076;-80
2023/05/01 11:33:57;;;;;;;6.05;3.85;;;;;;;;;;4951487;28;20094;-82
2023/05/01 11:36:26;;;;;;;9.77;4.00;;;;;;;;;;4951841;28;20043;-84
2023/05/01 11:38:55;;;;;;;6.88;3.95;;;;;;;;;;4971716;28;20052;-82
2023/05/01 11:41:22;;;;;;;9.45;4.15;;;;;;;;;;4941877;28;20051;-82
2023/05/01 11:43:50;;;;;;;9.13;4.03;;;;;;;;;;4942249;28;20043;-83
2023/05/01 11:46:26;;;;;;;7.05;3.83;;;;;;;;;;4938495;28;20053;-83
2023/05/01 11:48:55;;;;;;;7.07;3.75;;;;;;;;;;4958376;28;20067;-82
2023/05/01 11:51:22;;;;;;;8.60;3.55;;;;;;;;;;4944721;29;20075;-83
2023/05/01 11:54:05;;;;;;;7.63;3.78;;;;;;;;;;4977090;28;20051;-82
2023/05/01 11:56:33;;;;;;;6.78;3.63;;;;;;;;;;4963966;28;20639;-82
2023/05/01 11:59:08;;;;;;;7.68;3.70;;;;;;;;;;4961131;28;20231;-81
2023/05/01 12:01:37;;;;;;;6.97;3.40;;;;;;;;;;4964424;28;20141;-83
2023/05/01 12:04:05;;;;;;;7.07;3.45;;;;;;;;;;4954787;28;20059;-82
2023/05/01 12:06:35;;;;;;;9.05;3.50;;;;;;;;;;4933505;28;20048;-73
2023/05/01 12:09:03;;;;;;;5.13;3.50;;;;;;;;;;4934349;28;20067;-84
2023/05/01 12:11:29;;;;;;;5.57;3.45;;;;;;;;;;4948417;28;20047;-85
2023/05/01 12:13:56;;;;;;;9.10;3.55;;;;;;;;;;4946701;29;20051;-85
2023/05/01 12:16:24;;;;;;;8.60;3.22;;;;;;;;;;4943609;29;20047;-86
2023/05/01 12:18:51;;;;;;;6.07;3.42;;;;;;;;;;4957284;28;20056;-88
2023/05/01 12:21:18;;;;;;;7.45;3.53;;;;;;;;;;4950079;28;20043;-83
2023/05/01 12:23:45;;;;;;;5.57;3.10;;;;;;;;;;4957168;28;20047;-83
2023/05/01 12:26:18;;;;;;;6.00;3.50;;;;;;;;;;4957265;28;20434;-80
2023/05/01 12:28:58;;;;;;;5.13;3.20;;;;;;;;;;4942573;28;20053;-82
2023/05/01 12:31:26;;;;;;;5.72;3.33;;;;;;;;;;4942709;29;20062;-83
2023/05/01 12:33:57;;;;;;;5.15;3.00;;;;;;;;;;4963765;28;20058;-84
2023/05/01 12:36:27;;;;;;;6.40;3.20;;;;;;;;;;4947189;28;20070;-84
2023/05/01 12:38:57;;;;;;;5.57;3.17;;;;;;;;;;4964868;28;20063;-84
2023/05/01 12:41:39;;;;;;;7.10;3.22;;;;;;;;;;4946360;28;20055;-82
2023/05/01 12:44:18;;;;;;;5.97;3.30;;;;;;;;;;4972035;28;20083;-82
2023/05/01 12:46:51;;;;;;;7.15;3.78;;;;;;;;;;4945630;28;20051;-83
2023/05/01 12:49:19;;;;;;;5.68;3.60;;;;;;;;;;4950005;28;20091;-83
2023/05/01 12:51:50;;;;;;;6.88;3.63;;;;;;;;;;4962168;28;20070;-83
2023/05/01 12:54:23;;;;;;;7.63;3.60;;;;;;;;;;4962924;28;20074;-82
2023/05/01 12:56:53;;;;;;;5.65;3.38;;;;;;;;;;4942757;28;20056;-82
2023/05/01 12:59:24;;;;;;;6.35;3.40;;;;;;;;;;4944469;28;20052;-85
2023/05/01 13:02:01;;;;;;;7.32;3.83;;;;;;;;;;4950600;28;20079;-83
2023/05/01 13:04:28;;;;;;;6.90;3.70;;;;;;;;;;4977984;28;20047;-84
2023/05/01 13:06:58;;;;;;;8.15;3.47;;;;;;;;;;4967094;28;20056;-85
2023/05/01 13:09:26;;;;;;;6.90;3.63;;;;;;;;;;4943708;28;20051;-84
2023/05/01 13:12:01;;;;;;;6.05;3.08;;;;;;;;;;4946318;28;20059;-84
2023/05/01 13:14:29;;;;;;;7.93;3.20;;;;;;;;;;4957192;28;20051;-76
2023/05/01 13:16:56;;;;;;;6.95;3.42;;;;;;;;;;4959879;28;20054;-80
2023/05/01 13:19:27;;;;;;;7.15;3.80;;;;;;;;;;4948917;28;20559;-74
2023/05/01 13:21:56;;;;;;;9.75;3.63;;;;;;;;;;4918341;28;20171;-77
2023/05/01 13:24:34;;;;;;;8.23;3.70;;;;;;;;;;4933229;28;20591;-77
2023/05/01 13:27:01;;;;;;;6.30;3.50;;;;;;;;;;4951942;28;20043;-77
2023/05/01 13:29:31;;;;;;;9.10;3.60;;;;;;;;;;4942763;28;20070;-76
2023/05/01 13:31:58;;;;;;;7.68;3.45;;;;;;;;;;4946083;28;20071;-76
2023/05/01 13:34:29;;;;;;;8.43;3.40;;;;;;;;;;4950603;28;20043;-77
2023/05/01 13:36:56;;;;;;;8.63;3.13;;;;;;;;;;4920934;28;20235;-75
2023/05/01 13:39:22;;;;;;;6.18;3.30;;;;;;;;;;4936581;28;20063;-81
2023/05/01 13:41:50;;;;;;;11.02;3.72;;;;;;;;;;4962808;28;20043;-78
2023/05/01 13:44:17;;;;;;;7.47;3.53;;;;;;;;;;4947319;28;20643;-79
2023/05/01 13:46:44;;;;;;;6.45;3.50;;;;;;;;;;4959828;28;20144;-80
2023/05/01 13:49:11;;;;;;;7.90;3.65;;;;;;;;;;4953987;28;20043;-84
2023/05/01 13:51:42;;;;;;;10.45;3.45;;;;;;;;;;4967006;28;20499;-78
2023/05/01 13:54:09;;;;;;;9.20;3.38;;;;;;;;;;4967761;28;20050;-81
2023/05/01 13:56:36;;;;;;;13.82;3.20;;;;;;;;;;4961591;29;20036;-81
2023/05/01 13:59:04;;;;;;;7.55;3.50;;;;;;;;;;4956530;28;20074;-79
2023/05/01 14:01:35;;;;;;;7.18;3.60;;;;;;;;;;4960892;28;20067;-81
2023/05/01 14:04:07;;;;;;;11.40;4.05;;;;;;;;;;4965129;28;20158;-81
2023/05/01 14:06:35;;;;;;;8.45;4.25;;;;;;;;;;4979029;28;20047;-80
2023/05/01 14:09:04;;;;;;;9.82;4.20;;;;;;;;;;4959759;28;20043;-80
2023/05/01 14:11:31;;;;;;;7.40;3.78;;;;;;;;;;4950465;28;20039;-78
2023/05/01 14:13:58;;;;;;;9.10;4.22;;;;;;;;;;4956520;28;20090;-84
2023/05/01 14:16:26;;;;;;;10.43;3.78;;;;;;;;;;4981046;28;20054;-84
2023/05/01 14:18:55;;;;;;;9.15;4.72;;;;;;;;;;4965605;28;20039;-78
2023/05/01 14:21:26;;;;;;;9.63;4.80;;;;;;;;;;4963668;28;20071;-79
2023/05/01 14:23:53;;;;;;;11.15;4.53;;;;;;;;;;4949628;28;20055;-80
2023/05/01 14:26:22;;;;;;;8.88;4.30;;;;;;;;;;4982111;28;20066;-81
2023/05/01 14:28:49;;;;;;;10.98;4.60;;;;;;;;;;4960701;28;20040;-82
2023/05/01 14:31:27;;;;;;;19.27;4.30;;;;;;;;;;4934186;29;20174;-82
2023/05/01 14:33:57;;;;;;;13.30;4.13;;;;;;;;;;4934176;29;20059;-82
2023/05/01 14:36:27;;;;;;;7.95;4.00;;;;;;;;;;4933752;29;20075;-80
2023/05/01 14:39:00;;;;;;;11.50;4.47;;;;;;;;;;4940527;28;20051;-80
2023/05/01 14:41:28;;;;;;;9.55;4.18;;;;;;;;;;4939326;29;20591;-85